createdAt,value
2019-04-10T00:00:02.475Z,80.90
2019-04-10T00:02:29.739Z,81.00
2019-04-10T00:04:56.291Z,81.00
2019-04-10T00:07:23.587Z,81.10
2019-04-10T00:09:51.593Z,80.90
2019-04-10T00:12:18.714Z,81.00
2019-04-10T00:14:45.437Z,81.00
2019-04-10T00:17:13.080Z,81.00
2019-04-10T00:19:40.043Z,81.00
2019-04-10T00:22:06.625Z,80.90
2019-04-10T00:24:33.196Z,81.00
2019-04-10T00:27:02.068Z,81.10
2019-04-10T00:29:28.668Z,81.00
2019-04-10T00:31:56.300Z,81.00
2019-04-10T00:34:23.386Z,80.90
2019-04-10T00:36:51.313Z,81.00
2019-04-10T00:39:18.121Z,81.00
2019-04-10T00:41:44.623Z,81.00
2019-04-10T00:44:11.234Z,80.90
2019-04-10T00:46:37.984Z,80.90
2019-04-10T00:49:05.079Z,81.00
2019-04-10T00:51:31.802Z,81.10
2019-04-10T00:53:59.321Z,81.10
2019-04-10T00:56:26.282Z,80.90
2019-04-10T00:58:53.285Z,81.00
2019-04-10T01:01:19.911Z,80.70
2019-04-10T01:03:48.560Z,81.00
2019-04-10T01:06:16.018Z,81.00
2019-04-10T01:08:42.815Z,81.10
2019-04-10T01:11:09.416Z,81.10
2019-04-10T01:13:36.886Z,81.00
2019-04-10T01:16:03.640Z,81.00
2019-04-10T01:18:30.992Z,81.00
2019-04-10T01:20:58.132Z,81.10
2019-04-10T01:23:24.701Z,81.00
2019-04-10T01:25:51.603Z,81.00
2019-04-10T01:28:18.264Z,81.10
2019-04-10T01:30:46.487Z,81.00
2019-04-10T01:33:13.267Z,81.10
2019-04-10T01:35:40.488Z,81.00
2019-04-10T01:38:07.188Z,81.00
2019-04-10T01:40:33.909Z,81.00
2019-04-10T01:43:08.301Z,80.90
2019-04-10T01:45:29.361Z,81.00
2019-04-10T01:47:55.918Z,80.90
2019-04-10T01:50:22.479Z,81.40
2019-04-10T01:52:49.179Z,81.10
2019-04-10T01:55:23.107Z,81.00
2019-04-10T01:57:44.371Z,81.00
2019-04-10T02:00:13.883Z,81.00
2019-04-10T02:02:49.543Z,81.50
2019-04-10T02:05:16.552Z,81.10
2019-04-10T02:07:43.214Z,81.10
2019-04-10T02:10:10.070Z,81.10
2019-04-10T02:12:36.854Z,81.10
2019-04-10T02:15:04.789Z,81.10
2019-04-10T02:17:33.357Z,81.10
2019-04-10T02:20:00.835Z,81.10
2019-04-10T02:22:27.499Z,81.10
2019-04-10T02:24:55.580Z,81.10
2019-04-10T02:27:24.538Z,81.20
2019-04-10T02:29:50.627Z,81.10
2019-04-10T02:32:18.959Z,81.10
2019-04-10T02:34:46.860Z,81.10
2019-04-10T02:37:15.287Z,81.10
2019-04-10T02:39:47.020Z,81.10
2019-04-10T02:42:10.862Z,81.10
2019-04-10T02:44:37.783Z,81.10
2019-04-10T02:47:06.306Z,81.10
2019-04-10T02:49:33.407Z,81.10
2019-04-10T02:51:59.960Z,81.10
2019-04-10T02:54:27.035Z,81.10
2019-04-10T02:56:54.832Z,81.20
2019-04-10T02:59:23.928Z,81.10
2019-04-10T03:01:51.894Z,81.10
2019-04-10T03:04:18.583Z,81.10
2019-04-10T03:06:45.315Z,81.10
2019-04-10T03:09:28.882Z,81.20
2019-04-10T03:11:42.021Z,81.10
2019-04-10T03:14:10.608Z,81.10
2019-04-10T03:16:37.589Z,81.00
2019-04-10T03:19:05.323Z,81.10
2019-04-10T03:21:32.032Z,81.10
2019-04-10T03:24:00.055Z,81.00
2019-04-10T03:26:27.905Z,81.00
2019-04-10T03:28:55.615Z,81.10
2019-04-10T03:31:24.322Z,81.00
2019-04-10T03:34:08.760Z,81.10
2019-04-10T03:36:40.082Z,81.00
2019-04-10T03:39:07.906Z,81.00
2019-04-10T03:41:36.547Z,81.10
2019-04-10T03:44:03.500Z,80.90
2019-04-10T03:46:30.274Z,81.00
2019-04-10T03:48:57.731Z,81.10
2019-04-10T03:51:24.855Z,81.10
2019-04-10T03:53:51.592Z,81.00
2019-04-10T03:56:18.252Z,81.00
2019-04-10T03:58:44.871Z,81.10
2019-04-10T04:01:11.594Z,81.10
2019-04-10T04:03:38.187Z,81.00
2019-04-10T04:06:04.932Z,81.00
2019-04-10T04:08:32.020Z,81.00
2019-04-10T04:10:59.413Z,81.10
2019-04-10T04:13:26.208Z,81.00
2019-04-10T04:15:53.014Z,81.00
2019-04-10T04:18:19.940Z,80.90
2019-04-10T04:20:47.508Z,81.00
2019-04-10T04:23:14.181Z,81.00
2019-04-10T04:25:40.826Z,81.00
2019-04-10T04:28:07.455Z,80.90
2019-04-10T04:30:34.127Z,80.90
2019-04-10T04:33:02.519Z,80.90
2019-04-10T04:35:29.772Z,80.90
2019-04-10T04:37:56.419Z,80.90
2019-04-10T04:40:25.815Z,80.90
2019-04-10T04:42:53.565Z,80.90
2019-04-10T04:45:20.213Z,80.90
2019-04-10T04:47:46.857Z,80.90
2019-04-10T04:50:13.473Z,80.90
2019-04-10T04:52:41.178Z,81.00
2019-04-10T04:55:08.025Z,81.00
2019-04-10T04:57:36.525Z,81.00
2019-04-10T05:00:03.273Z,80.80
2019-04-10T05:02:30.331Z,80.90
2019-04-10T05:04:58.154Z,80.90
2019-04-10T05:07:24.884Z,81.00
2019-04-10T05:09:52.479Z,81.00
2019-04-10T05:12:20.118Z,80.50
2019-04-10T05:14:48.117Z,80.90
2019-04-10T05:17:17.183Z,81.00
2019-04-10T05:19:44.728Z,80.90
2019-04-10T05:22:12.300Z,81.00
2019-04-10T05:24:39.147Z,81.00
2019-04-10T05:27:05.806Z,81.00
2019-04-10T05:29:32.587Z,81.00
2019-04-10T05:32:01.015Z,80.90
2019-04-10T05:34:27.755Z,80.90
2019-04-10T05:36:54.710Z,80.90
2019-04-10T05:39:22.365Z,81.00
2019-04-10T05:41:50.289Z,81.00
2019-04-10T05:44:18.041Z,81.00
2019-04-10T05:46:45.052Z,81.00
2019-04-10T05:49:12.828Z,81.00
2019-04-10T05:51:39.604Z,81.00
2019-04-10T05:54:06.551Z,81.00
2019-04-10T05:56:34.556Z,81.10
2019-04-10T05:59:01.075Z,81.00
2019-04-10T06:01:35.103Z,81.00
2019-04-10T06:03:56.794Z,81.00
2019-04-10T06:06:24.246Z,81.00
2019-04-10T06:08:51.193Z,81.00
2019-04-10T06:11:17.822Z,81.00
2019-04-10T06:13:45.184Z,81.00
2019-04-10T06:16:12.979Z,81.80
2019-04-10T06:18:39.924Z,81.00
2019-04-10T06:21:08.992Z,81.00
2019-04-10T06:23:35.860Z,81.00
2019-04-10T06:26:04.058Z,81.00
2019-04-10T06:28:32.505Z,81.00
2019-04-10T06:31:00.662Z,80.90
2019-04-10T06:33:28.459Z,81.00
2019-04-10T06:35:55.296Z,81.00
2019-04-10T06:38:22.918Z,81.00
2019-04-10T06:40:50.333Z,80.90
2019-04-10T06:43:19.114Z,81.10
2019-04-10T06:45:46.176Z,81.10
2019-04-10T06:48:13.079Z,81.30
2019-04-10T06:50:39.729Z,81.10
2019-04-10T06:53:06.507Z,81.10
2019-04-10T06:55:33.296Z,81.10
2019-04-10T06:58:00.858Z,81.10
2019-04-10T07:00:28.562Z,81.10
2019-04-10T07:02:55.307Z,81.20
2019-04-10T07:05:21.988Z,81.10
2019-04-10T07:07:55.149Z,81.10
2019-04-10T07:10:26.084Z,81.10
2019-04-10T07:12:48.017Z,81.10
2019-04-10T07:15:19.132Z,81.10
2019-04-10T07:17:43.468Z,81.10
2019-04-10T07:20:10.162Z,81.10
2019-04-10T07:22:37.064Z,81.10
2019-04-10T07:25:04.722Z,81.10
2019-04-10T07:27:35.756Z,81.10
2019-04-10T07:30:01.674Z,81.10
2019-04-10T07:32:29.793Z,81.20
2019-04-10T07:34:59.989Z,81.20
2019-04-10T07:37:28.561Z,81.20
2019-04-10T07:39:55.212Z,81.10
2019-04-10T07:42:29.396Z,81.20
2019-04-10T07:44:50.585Z,82.00
2019-04-10T07:47:20.534Z,81.90
2019-04-10T07:49:48.284Z,81.20
2019-04-10T07:52:15.071Z,81.20
2019-04-10T07:54:44.364Z,81.20
2019-04-10T07:57:10.251Z,81.20
2019-04-10T07:59:37.568Z,81.20
2019-04-10T08:02:05.846Z,81.20
2019-04-10T08:04:33.181Z,81.20
2019-04-10T08:07:00.891Z,81.30
2019-04-10T08:09:27.623Z,81.30
2019-04-10T08:11:54.512Z,81.40
2019-04-10T08:14:21.819Z,81.10
2019-04-10T08:16:48.490Z,81.30
2019-04-10T08:19:16.691Z,81.30
2019-04-10T08:21:44.339Z,81.30
2019-04-10T08:24:11.471Z,81.30
2019-04-10T08:26:38.821Z,81.20
2019-04-10T08:29:05.761Z,81.30
2019-04-10T08:31:32.893Z,81.40
2019-04-10T08:33:59.528Z,81.30
2019-04-10T08:36:26.125Z,81.30
2019-04-10T08:38:52.862Z,81.30
2019-04-10T08:41:19.804Z,81.40
2019-04-10T08:43:46.497Z,81.40
2019-04-10T08:46:13.162Z,81.30
2019-04-10T08:48:39.928Z,81.30
2019-04-10T08:51:06.787Z,81.30
2019-04-10T08:53:34.130Z,81.40
2019-04-10T08:56:00.960Z,81.40
2019-04-10T08:58:35.602Z,81.40
2019-04-10T09:01:02.585Z,81.10
2019-04-10T09:03:29.283Z,81.30
2019-04-10T09:05:55.893Z,81.50
2019-04-10T09:08:22.589Z,81.40
2019-04-10T09:10:52.520Z,81.40
2019-04-10T09:13:20.151Z,82.20
2019-04-10T09:15:47.892Z,81.40
2019-04-10T09:18:14.884Z,81.40
2019-04-10T09:20:42.654Z,81.40
2019-04-10T09:23:21.470Z,81.50
2019-04-10T09:25:39.471Z,81.40
2019-04-10T09:28:06.450Z,81.40
2019-04-10T09:30:33.985Z,81.40
2019-04-10T09:33:14.308Z,81.40
2019-04-10T09:35:30.974Z,81.40
2019-04-10T09:37:58.623Z,81.40
2019-04-10T09:40:25.886Z,81.40
2019-04-10T09:42:52.939Z,81.40
2019-04-10T09:45:19.970Z,81.40
2019-04-10T09:47:47.970Z,81.40
2019-04-10T09:50:15.135Z,81.40
2019-04-10T09:52:41.897Z,81.40
2019-04-10T09:55:09.023Z,81.40
2019-04-10T09:57:36.612Z,80.90
2019-04-10T10:00:03.510Z,81.40
2019-04-10T10:02:31.518Z,81.30
2019-04-10T10:04:58.143Z,81.40
2019-04-10T10:07:24.938Z,81.40
2019-04-10T10:09:51.923Z,81.40
2019-04-10T10:12:18.829Z,81.40
2019-04-10T10:14:46.293Z,81.40
2019-04-10T10:17:13.053Z,81.40
2019-04-10T10:19:40.725Z,81.60
2019-04-10T10:22:07.649Z,81.50
2019-04-10T10:24:35.040Z,81.40
2019-04-10T10:27:01.969Z,81.50
2019-04-10T10:29:30.032Z,81.40
2019-04-10T10:31:57.114Z,81.50
2019-04-10T10:34:23.784Z,81.40
2019-04-10T10:36:52.881Z,81.30
2019-04-10T10:39:19.246Z,81.40
2019-04-10T10:41:46.800Z,81.40
2019-04-10T10:44:13.651Z,81.40
2019-04-10T10:46:41.803Z,81.30
2019-04-10T10:49:10.443Z,81.40
2019-04-10T10:51:37.260Z,81.40
2019-04-10T10:54:04.596Z,81.40
2019-04-10T10:56:32.571Z,81.40
2019-04-10T10:59:00.867Z,81.40
2019-04-10T11:01:28.124Z,81.40
2019-04-10T11:03:56.330Z,82.40
2019-04-10T11:06:24.682Z,81.30
2019-04-10T11:08:51.715Z,81.30
2019-04-10T11:11:19.938Z,81.40
2019-04-10T11:13:46.979Z,81.40
2019-04-10T11:16:14.475Z,81.40
2019-04-10T11:18:42.507Z,81.40
2019-04-10T11:21:11.707Z,81.40
2019-04-10T11:23:37.859Z,81.40
2019-04-10T11:26:05.097Z,81.40
2019-04-10T11:28:33.658Z,81.30
2019-04-10T11:31:01.368Z,81.30
2019-04-10T11:33:28.474Z,81.40
2019-04-10T11:35:55.306Z,81.30
2019-04-10T11:38:23.183Z,81.50
2019-04-10T11:40:49.961Z,81.30
2019-04-10T11:43:19.038Z,81.40
2019-04-10T11:45:52.011Z,81.20
2019-04-10T11:48:18.229Z,81.40
2019-04-10T11:50:44.661Z,81.30
2019-04-10T11:53:13.673Z,81.20
2019-04-10T11:55:46.779Z,81.30
2019-04-10T11:58:10.542Z,81.20
2019-04-10T12:03:08.762Z,81.10
2019-04-10T12:05:36.685Z,81.20
2019-04-10T12:08:29.657Z,81.10
2019-04-10T12:13:00.329Z,81.10
2019-04-10T12:15:27.923Z,81.00
2019-04-10T12:17:55.003Z,81.10
2019-04-10T12:20:21.866Z,81.10
2019-04-10T12:22:50.112Z,81.10
2019-04-10T12:25:18.663Z,81.10
2019-04-10T12:27:45.497Z,80.90
2019-04-10T12:30:13.156Z,81.00
2019-04-10T12:32:40.986Z,80.80
2019-04-10T12:35:08.748Z,80.80
2019-04-10T12:37:35.577Z,81.00
2019-04-10T12:40:03.424Z,80.90
2019-04-10T12:42:30.679Z,80.90
2019-04-10T12:44:57.841Z,80.80
2019-04-10T12:47:26.357Z,80.70
2019-04-10T12:49:53.993Z,80.70
2019-04-10T12:52:21.266Z,80.60
2019-04-10T12:54:49.031Z,80.50
2019-04-10T12:57:16.781Z,79.80
2019-04-10T12:59:43.728Z,80.50
2019-04-10T13:02:11.927Z,80.30
2019-04-10T13:04:39.038Z,80.50
2019-04-10T13:07:05.782Z,80.30
2019-04-10T13:09:33.688Z,80.20
2019-04-10T13:12:00.817Z,80.30
2019-04-10T13:14:27.525Z,80.20
2019-04-10T13:16:54.353Z,80.20
2019-04-10T13:19:21.371Z,80.20
2019-04-10T13:21:47.983Z,80.20
2019-04-10T13:24:14.922Z,80.20
2019-04-10T13:26:41.992Z,80.40
2019-04-10T13:29:08.824Z,80.10
2019-04-10T13:31:35.759Z,80.20
2019-04-10T13:34:02.787Z,80.00
2019-04-10T13:36:29.596Z,80.00
2019-04-10T13:38:58.211Z,80.00
2019-04-10T13:41:24.621Z,80.00
2019-04-10T13:43:51.883Z,79.80
2019-04-10T13:46:20.513Z,79.90
2019-04-10T13:48:47.304Z,79.90
2019-04-10T13:51:16.089Z,79.90
2019-04-10T13:53:42.942Z,79.80
2019-04-10T13:56:09.634Z,79.70
2019-04-10T13:58:36.291Z,79.70
2019-04-10T14:01:03.674Z,79.50
2019-04-10T14:03:30.485Z,79.70
2019-04-10T14:05:58.303Z,79.60
2019-04-10T14:08:40.562Z,79.60
2019-04-10T14:10:54.943Z,79.60
2019-04-10T14:13:22.014Z,79.60
2019-04-10T14:15:48.735Z,79.50
2019-04-10T14:18:16.535Z,79.50
2019-04-10T14:20:43.731Z,79.50
2019-04-10T14:23:18.161Z,79.50
2019-04-10T14:25:58.933Z,79.40
2019-04-10T14:28:27.079Z,79.40
2019-04-10T14:30:55.720Z,79.40
2019-04-10T14:33:23.320Z,79.40
2019-04-10T14:35:50.114Z,79.20
2019-04-10T14:38:17.224Z,79.20
2019-04-10T14:40:43.898Z,79.20
2019-04-10T14:43:10.488Z,79.20
2019-04-10T14:45:37.479Z,79.80
2019-04-10T14:48:05.673Z,79.10
2019-04-10T14:50:33.633Z,79.10
2019-04-10T14:53:01.320Z,79.10
2019-04-10T14:55:29.171Z,78.80
2019-04-10T14:57:56.089Z,79.10
2019-04-10T15:00:35.625Z,79.10
2019-04-10T15:03:02.451Z,79.10
2019-04-10T15:05:30.022Z,79.40
2019-04-10T15:07:57.491Z,78.90
2019-04-10T15:10:24.629Z,79.70
2019-04-10T15:12:51.711Z,78.80
2019-04-10T15:15:20.489Z,78.90
2019-04-10T15:17:47.638Z,79.70
2019-04-10T15:20:15.477Z,78.80
2019-04-10T15:22:44.172Z,78.70
2019-04-10T15:25:10.918Z,78.80
2019-04-10T15:27:37.882Z,78.90
2019-04-10T15:30:04.852Z,78.80
2019-04-10T15:32:31.689Z,79.10
2019-04-10T15:34:58.243Z,78.70
2019-04-10T15:37:25.027Z,78.70
2019-04-10T15:39:51.941Z,78.60
2019-04-10T15:42:19.737Z,78.70
2019-04-10T15:44:48.315Z,78.60
2019-04-10T15:47:19.589Z,78.50
2019-04-10T15:49:43.492Z,78.60
2019-04-10T15:52:12.124Z,78.60
2019-04-10T15:54:38.699Z,78.50
2019-04-10T15:57:07.110Z,78.50
2019-04-10T15:59:34.499Z,78.50
2019-04-10T16:02:01.489Z,78.50
2019-04-10T16:04:29.760Z,78.40
2019-04-10T16:06:56.518Z,78.50
2019-04-10T16:09:25.305Z,78.50
2019-04-10T16:11:56.704Z,78.50
2019-04-10T16:17:29.279Z,76.60
2019-04-10T16:20:13.385Z,78.50
2019-04-10T16:22:53.087Z,78.50
2019-04-10T16:25:29.930Z,78.50
2019-04-10T16:27:58.980Z,78.40
2019-04-10T16:30:26.673Z,78.50
2019-04-10T16:32:54.382Z,78.40
2019-04-10T16:35:21.743Z,78.40
2019-04-10T16:37:49.431Z,78.40
2019-04-10T16:40:16.077Z,78.40
2019-04-10T16:42:43.766Z,78.30
2019-04-10T16:45:11.117Z,78.30
2019-04-10T16:47:38.851Z,78.40
2019-04-10T16:50:05.633Z,78.40
2019-04-10T16:52:33.281Z,78.30
2019-04-10T16:55:00.463Z,78.30
2019-04-10T16:57:29.046Z,78.30
2019-04-10T16:59:56.050Z,78.40
2019-04-10T17:02:24.230Z,78.30
2019-04-10T17:04:52.180Z,78.20
2019-04-10T17:07:19.331Z,78.30
2019-04-10T17:09:47.351Z,78.20
2019-04-10T17:12:13.943Z,78.20
2019-04-10T17:14:41.959Z,78.20
2019-04-10T17:17:08.628Z,78.20
2019-04-10T17:19:46.649Z,78.20
2019-04-10T17:22:04.749Z,77.80
2019-04-10T17:24:31.478Z,78.00
2019-04-10T17:26:59.257Z,78.10
2019-04-10T17:29:27.137Z,78.20
2019-04-10T17:31:55.017Z,77.50
2019-04-10T17:34:22.819Z,78.10
2019-04-10T17:36:49.538Z,78.10
2019-04-10T17:39:17.977Z,78.10
2019-04-10T17:41:45.918Z,78.20
2019-04-10T17:44:13.522Z,78.00
2019-04-10T17:46:41.530Z,78.10
2019-04-10T17:49:09.110Z,78.10
2019-04-10T17:51:38.349Z,78.10
2019-04-10T17:54:06.281Z,77.90
2019-04-10T17:56:33.021Z,78.10
2019-04-10T17:59:00.824Z,78.00
2019-04-10T18:01:27.530Z,77.90
2019-04-10T18:03:58.639Z,77.90
2019-04-10T18:06:23.542Z,78.00
2019-04-10T18:08:51.462Z,77.90
2019-04-10T18:11:20.309Z,77.90
2019-04-10T18:13:47.204Z,78.00
2019-04-10T18:16:14.748Z,77.90
2019-04-10T18:18:42.165Z,77.80
2019-04-10T18:21:08.820Z,77.90
2019-04-10T18:23:35.650Z,78.70
2019-04-10T18:26:02.450Z,77.80
2019-04-10T18:28:31.864Z,77.90
2019-04-10T18:30:58.630Z,77.80
2019-04-10T18:33:26.490Z,77.80
2019-04-10T18:35:53.281Z,77.80
2019-04-10T18:38:19.990Z,77.80
2019-04-10T18:40:55.860Z,77.80
2019-04-10T18:43:18.194Z,77.80
2019-04-10T18:45:54.732Z,77.80
2019-04-10T18:48:13.261Z,77.80
2019-04-10T18:50:40.569Z,77.80
2019-04-10T18:53:09.290Z,77.90
2019-04-10T18:55:36.442Z,77.70
2019-04-10T18:58:05.372Z,77.80
2019-04-10T19:00:51.191Z,77.80
2019-04-10T19:03:45.079Z,77.80
2019-04-10T19:06:04.592Z,77.90
2019-04-10T19:08:32.209Z,77.70
2019-04-10T19:11:10.597Z,77.70
2019-04-10T19:13:28.661Z,77.60
2019-04-10T19:15:55.437Z,77.70
2019-04-10T19:18:22.073Z,77.70
2019-04-10T19:20:49.263Z,77.60
2019-04-10T19:23:17.166Z,77.70
2019-04-10T19:25:45.482Z,77.80
2019-04-10T19:28:12.852Z,77.30
2019-04-10T19:30:42.043Z,77.80
2019-04-10T19:33:08.636Z,77.80
2019-04-10T19:35:35.604Z,77.90
2019-04-10T19:38:03.126Z,77.70
2019-04-10T19:40:29.987Z,77.80
2019-04-10T19:42:57.679Z,77.80
2019-04-10T19:45:24.341Z,77.80
2019-04-10T19:47:50.949Z,77.70
2019-04-10T19:50:19.444Z,77.60
2019-04-10T19:52:53.330Z,77.80
2019-04-10T19:55:23.876Z,77.80
2019-04-10T19:57:50.548Z,77.70
2019-04-10T20:00:20.016Z,77.50
2019-04-10T20:02:47.204Z,77.90
2019-04-10T20:05:14.929Z,77.80
2019-04-10T20:07:42.819Z,77.80
2019-04-10T20:10:10.800Z,78.00
2019-04-10T20:12:40.363Z,77.80
2019-04-10T20:15:06.496Z,77.70
2019-04-10T20:17:33.555Z,77.80
2019-04-10T20:20:00.672Z,77.90
2019-04-10T20:22:28.206Z,77.90
2019-04-10T20:24:56.828Z,77.80
2019-04-10T20:27:23.737Z,77.90
2019-04-10T20:29:51.108Z,77.80
2019-04-10T20:32:17.784Z,77.80
2019-04-10T20:34:45.412Z,77.80
2019-04-10T20:37:13.082Z,77.80
2019-04-10T20:39:39.816Z,77.90
2019-04-10T20:42:07.686Z,77.90
2019-04-10T20:44:36.571Z,77.90
2019-04-10T20:47:03.469Z,77.90
2019-04-10T20:49:30.190Z,77.90
2019-04-10T20:51:57.736Z,77.90
2019-04-10T20:54:26.654Z,77.90
2019-04-10T20:56:53.441Z,77.90
2019-04-10T20:59:20.289Z,77.90
2019-04-10T21:01:47.054Z,77.90
2019-04-10T21:04:15.006Z,78.00
2019-04-10T21:06:43.557Z,77.90
2019-04-10T21:09:12.365Z,78.00
2019-04-10T21:11:40.236Z,78.00
2019-04-10T21:14:07.219Z,77.90
2019-04-10T21:16:33.751Z,78.00
2019-04-10T21:19:00.335Z,78.00
2019-04-10T21:21:26.935Z,78.00
2019-04-10T21:23:54.269Z,78.00
2019-04-10T21:26:21.894Z,78.00
2019-04-10T21:28:48.936Z,78.00
2019-04-10T21:31:38.612Z,77.90
2019-04-10T21:34:26.321Z,77.90
2019-04-10T21:36:53.309Z,78.00
2019-04-10T21:39:21.107Z,78.00
2019-04-10T21:41:48.800Z,78.00
2019-04-10T21:44:16.093Z,78.10
2019-04-10T21:46:43.008Z,78.10
2019-04-10T21:49:09.658Z,77.80
2019-04-10T21:51:37.046Z,78.60
2019-04-10T21:54:06.391Z,78.00
2019-04-10T21:56:33.307Z,78.00
2019-04-10T21:59:01.073Z,78.00
2019-04-10T22:01:28.424Z,78.10
2019-04-10T22:03:56.231Z,78.10
2019-04-10T22:06:49.456Z,78.20
2019-04-10T22:09:34.899Z,78.00
2019-04-10T22:12:08.061Z,78.00
2019-04-10T22:14:34.755Z,78.00
2019-04-10T22:17:02.325Z,77.90
2019-04-10T22:19:28.931Z,78.00
2019-04-10T22:21:55.811Z,78.00
2019-04-10T22:24:23.505Z,77.90
2019-04-10T22:26:50.309Z,78.00
2019-04-10T22:29:17.614Z,78.00
2019-04-10T22:31:44.390Z,78.00
2019-04-10T22:34:11.766Z,78.00
2019-04-10T22:36:39.447Z,78.10
2019-04-10T22:39:08.845Z,78.00
2019-04-10T22:41:36.522Z,78.00
2019-04-10T22:44:03.357Z,78.10
2019-04-10T22:46:29.998Z,78.00
2019-04-10T22:48:57.715Z,78.00
2019-04-10T22:51:24.799Z,78.00
2019-04-10T22:53:51.806Z,78.00
2019-04-10T22:56:18.574Z,78.10
2019-04-10T22:58:45.639Z,78.00
2019-04-10T23:01:13.173Z,78.10
2019-04-10T23:03:41.028Z,78.10
2019-04-10T23:06:07.752Z,78.00
2019-04-10T23:08:35.722Z,78.00
2019-04-10T23:11:03.481Z,78.00
2019-04-10T23:13:32.071Z,77.50
2019-04-10T23:15:59.835Z,77.80
2019-04-10T23:18:27.581Z,78.00
2019-04-10T23:20:54.606Z,78.10
2019-04-10T23:23:21.179Z,78.00
2019-04-10T23:25:50.885Z,77.90
2019-04-10T23:28:17.690Z,78.00
2019-04-10T23:30:45.342Z,78.00
2019-04-10T23:33:12.206Z,77.90
2019-04-10T23:35:41.301Z,77.90
2019-04-10T23:38:08.960Z,77.90
2019-04-10T23:40:36.799Z,78.00
2019-04-10T23:43:11.258Z,77.90
2019-04-10T23:45:32.212Z,77.90
2019-04-10T23:48:00.366Z,77.90
2019-04-10T23:50:27.130Z,77.90
2019-04-10T23:52:53.680Z,77.90
2019-04-10T23:55:20.393Z,77.90
2019-04-10T23:57:46.994Z,77.90
